sensor_id;sensor_type;location;lat;lon;timestamp;temperature;humidity
40454;DHT22;26160;51.858;4.398;2022-12-29T00:02:26;12.10;99.90
40454;DHT22;26160;51.858;4.398;2022-12-29T00:04:52;12.10;99.90
40454;DHT22;26160;51.858;4.398;2022-12-29T00:07:18;12.10;99.90
40454;DHT22;26160;51.858;4.398;2022-12-29T00:09:45;12.10;99.90
40454;DHT22;26160;51.858;4.398;2022-12-29T00:12:11;12.10;99.90
40454;DHT22;26160;51.858;4.398;2022-12-29T00:14:37;12.10;99.90
40454;DHT22;26160;51.858;4.398;2022-12-29T00:17:22;12.10;99.90
40454;DHT22;26160;51.858;4.398;2022-12-29T00:19:48;12.20;99.90
40454;DHT22;26160;51.858;4.398;2022-12-29T00:22:32;12.20;99.90
40454;DHT22;26160;51.858;4.398;2022-12-29T00:25:17;12.10;99.90
40454;DHT22;26160;51.858;4.398;2022-12-29T00:28:02;12.10;99.90
40454;DHT22;26160;51.858;4.398;2022-12-29T00:30:46;12.00;99.90
40454;DHT22;26160;51.858;4.398;2022-12-29T00:33:33;12.00;99.90
40454;DHT22;26160;51.858;4.398;2022-12-29T00:36:35;12.00;99.90
40454;DHT22;26160;51.858;4.398;2022-12-29T00:39:06;12.00;99.90
40454;DHT22;26160;51.858;4.398;2022-12-29T00:41:52;11.90;99.90
40454;DHT22;26160;51.858;4.398;2022-12-29T00:44:36;11.80;99.90
40454;DHT22;26160;51.858;4.398;2022-12-29T00:47:02;11.70;99.90
40454;DHT22;26160;51.858;4.398;2022-12-29T00:49:30;11.60;99.90
40454;DHT22;26160;51.858;4.398;2022-12-29T00:52:08;11.60;99.90
40454;DHT22;26160;51.858;4.398;2022-12-29T00:54:36;11.50;99.90
40454;DHT22;26160;51.858;4.398;2022-12-29T00:57:03;11.50;99.90
40454;DHT22;26160;51.858;4.398;2022-12-29T00:59:30;11.50;99.90
40454;DHT22;26160;51.858;4.398;2022-12-29T01:01:56;11.40;99.90
40454;DHT22;26160;51.858;4.398;2022-12-29T01:04:24;11.40;99.90
40454;DHT22;26160;51.858;4.398;2022-12-29T01:06:52;11.30;99.90
40454;DHT22;26160;51.858;4.398;2022-12-29T01:09:18;11.30;99.90
40454;DHT22;26160;51.858;4.398;2022-12-29T01:12:04;11.40;99.90
40454;DHT22;26160;51.858;4.398;2022-12-29T01:14:30;11.40;99.90
40454;DHT22;26160;51.858;4.398;2022-12-29T01:16:56;11.40;99.90
40454;DHT22;26160;51.858;4.398;2022-12-29T01:19:24;11.40;99.90
40454;DHT22;26160;51.858;4.398;2022-12-29T01:21:50;11.40;99.90
40454;DHT22;26160;51.858;4.398;2022-12-29T01:24:18;11.40;99.90
40454;DHT22;26160;51.858;4.398;2022-12-29T01:26:44;11.40;99.90
40454;DHT22;26160;51.858;4.398;2022-12-29T01:29:10;11.30;99.90
40454;DHT22;26160;51.858;4.398;2022-12-29T01:31:37;11.30;99.90
40454;DHT22;26160;51.858;4.398;2022-12-29T01:34:04;11.30;99.90
40454;DHT22;26160;51.858;4.398;2022-12-29T01:36:30;11.20;99.90
40454;DHT22;26160;51.858;4.398;2022-12-29T01:38:56;11.20;99.90
40454;DHT22;26160;51.858;4.398;2022-12-29T01:41:23;11.20;99.90
40454;DHT22;26160;51.858;4.398;2022-12-29T01:43:57;11.20;99.90
40454;DHT22;26160;51.858;4.398;2022-12-29T01:46:29;11.20;99.90
40454;DHT22;26160;51.858;4.398;2022-12-29T01:49:08;11.20;99.90
40454;DHT22;26160;51.858;4.398;2022-12-29T01:51:40;11.20;99.90
40454;DHT22;26160;51.858;4.398;2022-12-29T01:54:22;11.20;99.90
40454;DHT22;26160;51.858;4.398;2022-12-29T01:56:51;11.10;99.90
40454;DHT22;26160;51.858;4.398;2022-12-29T01:59:20;11.10;99.90
40454;DHT22;26160;51.858;4.398;2022-12-29T02:01:49;11.20;99.90
40454;DHT22;26160;51.858;4.398;2022-12-29T02:04:15;11.20;99.90
40454;DHT22;26160;51.858;4.398;2022-12-29T02:06:46;11.20;99.90
40454;DHT22;26160;51.858;4.398;2022-12-29T02:09:14;11.30;99.90
40454;DHT22;26160;51.858;4.398;2022-12-29T02:11:40;11.30;99.90
40454;DHT22;26160;51.858;4.398;2022-12-29T02:14:10;11.30;99.90
40454;DHT22;26160;51.858;4.398;2022-12-29T02:16:42;11.20;99.90
40454;DHT22;26160;51.858;4.398;2022-12-29T02:25:14;11.20;99.90
40454;DHT22;26160;51.858;4.398;2022-12-29T02:27:58;11.20;99.90
40454;DHT22;26160;51.858;4.398;2022-12-29T02:35:42;11.40;99.90
40454;DHT22;26160;51.858;4.398;2022-12-29T02:41:34;11.20;99.90
40454;DHT22;26160;51.858;4.398;2022-12-29T02:47:00;11.10;99.90
40454;DHT22;26160;51.858;4.398;2022-12-29T02:52:00;11.10;99.90
40454;DHT22;26160;51.858;4.398;2022-12-29T02:54:27;11.10;99.90
40454;DHT22;26160;51.858;4.398;2022-12-29T03:00:02;11.10;99.90
40454;DHT22;26160;51.858;4.398;2022-12-29T03:05:40;11.10;99.90
40454;DHT22;26160;51.858;4.398;2022-12-29T03:08:19;11.20;99.90
40454;DHT22;26160;51.858;4.398;2022-12-29T03:11:05;11.10;99.90
40454;DHT22;26160;51.858;4.398;2022-12-29T03:14:08;11.10;99.90
40454;DHT22;26160;51.858;4.398;2022-12-29T03:17:09;11.10;99.90
40454;DHT22;26160;51.858;4.398;2022-12-29T03:19:44;11.00;99.90
40454;DHT22;26160;51.858;4.398;2022-12-29T03:22:19;11.00;99.90
40454;DHT22;26160;51.858;4.398;2022-12-29T03:25:03;11.10;99.90
40454;DHT22;26160;51.858;4.398;2022-12-29T03:27:35;11.00;99.90
40454;DHT22;26160;51.858;4.398;2022-12-29T03:30:04;11.00;99.90
40454;DHT22;26160;51.858;4.398;2022-12-29T03:32:51;11.10;99.90
40454;DHT22;26160;51.858;4.398;2022-12-29T03:35:21;11.20;99.90
40454;DHT22;26160;51.858;4.398;2022-12-29T03:37:59;11.20;99.90
40454;DHT22;26160;51.858;4.398;2022-12-29T03:40:27;11.30;99.90
40454;DHT22;26160;51.858;4.398;2022-12-29T03:42:55;11.30;99.90
40454;DHT22;26160;51.858;4.398;2022-12-29T03:45:21;11.30;99.90
40454;DHT22;26160;51.858;4.398;2022-12-29T03:47:47;11.30;99.90
40454;DHT22;26160;51.858;4.398;2022-12-29T03:50:14;11.30;99.90
40454;DHT22;26160;51.858;4.398;2022-12-29T03:52:40;11.30;99.90
40454;DHT22;26160;51.858;4.398;2022-12-29T03:55:06;11.30;99.90
40454;DHT22;26160;51.858;4.398;2022-12-29T03:57:32;11.30;99.90
40454;DHT22;26160;51.858;4.398;2022-12-29T03:59:59;11.30;99.90
40454;DHT22;26160;51.858;4.398;2022-12-29T04:02:25;11.20;99.90
40454;DHT22;26160;51.858;4.398;2022-12-29T04:04:51;11.10;99.90
40454;DHT22;26160;51.858;4.398;2022-12-29T04:07:17;11.00;99.90
40454;DHT22;26160;51.858;4.398;2022-12-29T04:09:43;10.90;99.90
40454;DHT22;26160;51.858;4.398;2022-12-29T04:12:09;10.80;99.90
40454;DHT22;26160;51.858;4.398;2022-12-29T04:14:35;10.70;99.90
40454;DHT22;26160;51.858;4.398;2022-12-29T04:17:01;10.50;99.90
40454;DHT22;26160;51.858;4.398;2022-12-29T04:19:27;10.30;99.90
40454;DHT22;26160;51.858;4.398;2022-12-29T04:21:53;10.20;99.90
40454;DHT22;26160;51.858;4.398;2022-12-29T04:24:19;10.10;99.90
40454;DHT22;26160;51.858;4.398;2022-12-29T04:26:45;10.10;99.90
40454;DHT22;26160;51.858;4.398;2022-12-29T04:29:11;10.20;99.90
40454;DHT22;26160;51.858;4.398;2022-12-29T04:31:37;10.20;99.90
40454;DHT22;26160;51.858;4.398;2022-12-29T04:34:03;10.20;99.90
40454;DHT22;26160;51.858;4.398;2022-12-29T04:36:30;10.30;99.90
40454;DHT22;26160;51.858;4.398;2022-12-29T04:38:58;10.30;99.90
40454;DHT22;26160;51.858;4.398;2022-12-29T04:41:25;10.40;99.90
40454;DHT22;26160;51.858;4.398;2022-12-29T04:43:51;10.50;99.90
40454;DHT22;26160;51.858;4.398;2022-12-29T04:46:17;10.50;99.90
40454;DHT22;26160;51.858;4.398;2022-12-29T04:48:43;10.50;99.90
40454;DHT22;26160;51.858;4.398;2022-12-29T04:51:09;10.60;99.90
40454;DHT22;26160;51.858;4.398;2022-12-29T04:53:35;10.50;99.90
40454;DHT22;26160;51.858;4.398;2022-12-29T04:56:01;10.50;99.90
40454;DHT22;26160;51.858;4.398;2022-12-29T04:58:27;10.50;99.90
40454;DHT22;26160;51.858;4.398;2022-12-29T05:00:54;10.50;99.90
40454;DHT22;26160;51.858;4.398;2022-12-29T05:03:20;10.50;99.90
40454;DHT22;26160;51.858;4.398;2022-12-29T05:05:46;10.50;99.90
40454;DHT22;26160;51.858;4.398;2022-12-29T05:08:12;10.50;99.90
40454;DHT22;26160;51.858;4.398;2022-12-29T05:10:38;10.50;99.90
40454;DHT22;26160;51.858;4.398;2022-12-29T05:13:04;10.40;99.90
40454;DHT22;26160;51.858;4.398;2022-12-29T05:15:30;10.50;99.90
40454;DHT22;26160;51.858;4.398;2022-12-29T05:17:56;10.60;99.90
40454;DHT22;26160;51.858;4.398;2022-12-29T05:20:22;10.60;99.90
40454;DHT22;26160;51.858;4.398;2022-12-29T05:22:49;10.60;99.90
40454;DHT22;26160;51.858;4.398;2022-12-29T05:25:15;10.50;99.90
40454;DHT22;26160;51.858;4.398;2022-12-29T05:27:41;10.50;99.90
40454;DHT22;26160;51.858;4.398;2022-12-29T05:30:07;10.60;99.90
40454;DHT22;26160;51.858;4.398;2022-12-29T05:32:34;10.50;99.90
40454;DHT22;26160;51.858;4.398;2022-12-29T05:35:00;10.50;99.90
40454;DHT22;26160;51.858;4.398;2022-12-29T05:37:27;10.40;99.90
40454;DHT22;26160;51.858;4.398;2022-12-29T05:39:53;10.40;99.90
40454;DHT22;26160;51.858;4.398;2022-12-29T05:42:19;10.30;99.90
40454;DHT22;26160;51.858;4.398;2022-12-29T05:44:45;10.40;99.90
40454;DHT22;26160;51.858;4.398;2022-12-29T05:47:11;10.40;99.90
40454;DHT22;26160;51.858;4.398;2022-12-29T05:49:37;10.40;99.90
40454;DHT22;26160;51.858;4.398;2022-12-29T05:52:03;10.40;99.90
40454;DHT22;26160;51.858;4.398;2022-12-29T05:54:29;10.40;99.90
40454;DHT22;26160;51.858;4.398;2022-12-29T05:56:55;10.40;99.90
40454;DHT22;26160;51.858;4.398;2022-12-29T05:59:21;10.30;99.90
40454;DHT22;26160;51.858;4.398;2022-12-29T06:01:47;10.30;99.90
40454;DHT22;26160;51.858;4.398;2022-12-29T06:04:13;10.20;99.90
40454;DHT22;26160;51.858;4.398;2022-12-29T06:06:40;10.20;99.90
40454;DHT22;26160;51.858;4.398;2022-12-29T06:09:09;10.10;99.90
40454;DHT22;26160;51.858;4.398;2022-12-29T06:11:36;10.20;99.90
40454;DHT22;26160;51.858;4.398;2022-12-29T06:14:02;10.20;99.90
40454;DHT22;26160;51.858;4.398;2022-12-29T06:16:28;10.20;99.90
40454;DHT22;26160;51.858;4.398;2022-12-29T06:18:54;10.20;99.90
40454;DHT22;26160;51.858;4.398;2022-12-29T06:21:20;10.20;99.90
40454;DHT22;26160;51.858;4.398;2022-12-29T06:23:46;10.30;99.90
40454;DHT22;26160;51.858;4.398;2022-12-29T06:26:12;10.30;99.90
40454;DHT22;26160;51.858;4.398;2022-12-29T06:28:38;10.30;99.90
40454;DHT22;26160;51.858;4.398;2022-12-29T06:31:04;10.40;99.90
40454;DHT22;26160;51.858;4.398;2022-12-29T06:33:30;10.30;99.90
40454;DHT22;26160;51.858;4.398;2022-12-29T06:35:56;10.20;99.90
40454;DHT22;26160;51.858;4.398;2022-12-29T06:38:22;10.00;99.90
40454;DHT22;26160;51.858;4.398;2022-12-29T06:40:49;10.00;99.90
40454;DHT22;26160;51.858;4.398;2022-12-29T06:43:15;9.90;99.90
40454;DHT22;26160;51.858;4.398;2022-12-29T06:45:41;9.70;99.90
40454;DHT22;26160;51.858;4.398;2022-12-29T06:48:08;9.70;99.90
40454;DHT22;26160;51.858;4.398;2022-12-29T06:50:34;9.60;99.90
40454;DHT22;26160;51.858;4.398;2022-12-29T06:53:00;9.60;99.90
40454;DHT22;26160;51.858;4.398;2022-12-29T06:55:27;9.60;99.90
40454;DHT22;26160;51.858;4.398;2022-12-29T06:57:55;9.60;99.90
40454;DHT22;26160;51.858;4.398;2022-12-29T07:00:22;9.60;99.90
40454;DHT22;26160;51.858;4.398;2022-12-29T07:02:48;9.60;99.90
40454;DHT22;26160;51.858;4.398;2022-12-29T07:05:14;9.60;99.90
40454;DHT22;26160;51.858;4.398;2022-12-29T07:07:41;9.70;99.90
40454;DHT22;26160;51.858;4.398;2022-12-29T07:10:07;9.80;99.90
40454;DHT22;26160;51.858;4.398;2022-12-29T07:12:33;9.90;99.90
40454;DHT22;26160;51.858;4.398;2022-12-29T07:14:59;9.90;99.90
40454;DHT22;26160;51.858;4.398;2022-12-29T07:17:25;10.00;99.90
40454;DHT22;26160;51.858;4.398;2022-12-29T07:19:51;10.10;99.90
40454;DHT22;26160;51.858;4.398;2022-12-29T07:22:17;10.10;99.90
40454;DHT22;26160;51.858;4.398;2022-12-29T07:24:43;10.10;99.90
40454;DHT22;26160;51.858;4.398;2022-12-29T07:27:09;10.10;99.90
40454;DHT22;26160;51.858;4.398;2022-12-29T07:29:38;10.10;99.90
40454;DHT22;26160;51.858;4.398;2022-12-29T07:32:04;10.20;99.90
40454;DHT22;26160;51.858;4.398;2022-12-29T07:34:31;10.10;99.90
40454;DHT22;26160;51.858;4.398;2022-12-29T07:36:57;10.20;99.90
40454;DHT22;26160;51.858;4.398;2022-12-29T07:39:23;10.30;99.90
40454;DHT22;26160;51.858;4.398;2022-12-29T07:41:49;10.30;99.90
40454;DHT22;26160;51.858;4.398;2022-12-29T07:44:15;10.30;99.90
40454;DHT22;26160;51.858;4.398;2022-12-29T07:46:41;10.40;99.90
40454;DHT22;26160;51.858;4.398;2022-12-29T07:49:07;10.40;99.90
40454;DHT22;26160;51.858;4.398;2022-12-29T07:51:33;10.50;99.90
40454;DHT22;26160;51.858;4.398;2022-12-29T07:53:59;10.60;99.90
40454;DHT22;26160;51.858;4.398;2022-12-29T07:56:29;10.70;99.90
40454;DHT22;26160;51.858;4.398;2022-12-29T07:58:55;10.60;99.90
40454;DHT22;26160;51.858;4.398;2022-12-29T08:01:21;10.60;99.90
40454;DHT22;26160;51.858;4.398;2022-12-29T08:03:49;10.60;99.90
40454;DHT22;26160;51.858;4.398;2022-12-29T08:06:15;10.50;99.90
40454;DHT22;26160;51.858;4.398;2022-12-29T08:08:41;10.50;99.90
40454;DHT22;26160;51.858;4.398;2022-12-29T08:11:07;10.60;99.90
40454;DHT22;26160;51.858;4.398;2022-12-29T08:13:33;10.60;99.90
40454;DHT22;26160;51.858;4.398;2022-12-29T08:15:59;10.60;99.90
40454;DHT22;26160;51.858;4.398;2022-12-29T08:18:25;10.50;99.90
40454;DHT22;26160;51.858;4.398;2022-12-29T08:20:52;10.50;99.90
40454;DHT22;26160;51.858;4.398;2022-12-29T08:23:18;10.50;99.90
40454;DHT22;26160;51.858;4.398;2022-12-29T08:25:44;10.40;99.90
40454;DHT22;26160;51.858;4.398;2022-12-29T08:28:10;10.30;99.90
40454;DHT22;26160;51.858;4.398;2022-12-29T08:30:36;10.20;99.90
40454;DHT22;26160;51.858;4.398;2022-12-29T08:33:02;10.10;99.90
40454;DHT22;26160;51.858;4.398;2022-12-29T08:35:28;10.10;99.90
40454;DHT22;26160;51.858;4.398;2022-12-29T08:37:54;10.00;99.90
40454;DHT22;26160;51.858;4.398;2022-12-29T08:40:20;9.90;99.90
40454;DHT22;26160;51.858;4.398;2022-12-29T08:42:46;9.90;99.90
40454;DHT22;26160;51.858;4.398;2022-12-29T08:45:12;10.00;99.90
40454;DHT22;26160;51.858;4.398;2022-12-29T08:47:38;9.90;99.90
40454;DHT22;26160;51.858;4.398;2022-12-29T08:50:05;9.80;99.90
40454;DHT22;26160;51.858;4.398;2022-12-29T08:52:31;9.80;99.90
40454;DHT22;26160;51.858;4.398;2022-12-29T08:54:57;9.80;99.90
40454;DHT22;26160;51.858;4.398;2022-12-29T08:57:23;9.80;99.90
40454;DHT22;26160;51.858;4.398;2022-12-29T08:59:49;9.80;99.90
40454;DHT22;26160;51.858;4.398;2022-12-29T09:02:15;9.80;99.90
40454;DHT22;26160;51.858;4.398;2022-12-29T09:04:41;9.70;99.90
40454;DHT22;26160;51.858;4.398;2022-12-29T09:07:07;9.70;99.90
40454;DHT22;26160;51.858;4.398;2022-12-29T09:09:33;9.70;99.90
40454;DHT22;26160;51.858;4.398;2022-12-29T09:11:59;9.80;99.90
40454;DHT22;26160;51.858;4.398;2022-12-29T09:14:26;9.80;99.90
40454;DHT22;26160;51.858;4.398;2022-12-29T09:16:52;9.80;99.90
40454;DHT22;26160;51.858;4.398;2022-12-29T09:19:37;9.80;99.90
40454;DHT22;26160;51.858;4.398;2022-12-29T09:22:03;9.80;99.90
40454;DHT22;26160;51.858;4.398;2022-12-29T09:24:29;9.80;99.90
40454;DHT22;26160;51.858;4.398;2022-12-29T09:26:56;9.90;99.90
40454;DHT22;26160;51.858;4.398;2022-12-29T09:29:22;9.90;99.90
40454;DHT22;26160;51.858;4.398;2022-12-29T09:31:49;9.90;99.90
40454;DHT22;26160;51.858;4.398;2022-12-29T09:34:15;9.90;99.90
40454;DHT22;26160;51.858;4.398;2022-12-29T09:36:41;10.00;99.90
40454;DHT22;26160;51.858;4.398;2022-12-29T09:39:08;10.00;99.90
40454;DHT22;26160;51.858;4.398;2022-12-29T09:42:11;10.00;99.90
40454;DHT22;26160;51.858;4.398;2022-12-29T09:47:19;10.00;99.90
40454;DHT22;26160;51.858;4.398;2022-12-29T09:50:07;10.00;99.90
40454;DHT22;26160;51.858;4.398;2022-12-29T09:55:19;10.10;99.90
40454;DHT22;26160;51.858;4.398;2022-12-29T09:57:53;10.10;99.90
40454;DHT22;26160;51.858;4.398;2022-12-29T10:00:23;10.10;99.90
40454;DHT22;26160;51.858;4.398;2022-12-29T10:03:09;10.10;99.90
40454;DHT22;26160;51.858;4.398;2022-12-29T10:08:37;10.10;99.90
40454;DHT22;26160;51.858;4.398;2022-12-29T10:11:31;10.10;99.90
40454;DHT22;26160;51.858;4.398;2022-12-29T10:14:36;10.20;99.90
40454;DHT22;26160;51.858;4.398;2022-12-29T10:22:23;10.30;99.90
40454;DHT22;26160;51.858;4.398;2022-12-29T10:24:55;10.30;99.90
40454;DHT22;26160;51.858;4.398;2022-12-29T10:27:23;10.40;99.90
40454;DHT22;26160;51.858;4.398;2022-12-29T10:29:58;10.50;99.90
40454;DHT22;26160;51.858;4.398;2022-12-29T10:32:36;10.50;99.90
40454;DHT22;26160;51.858;4.398;2022-12-29T10:35:14;10.40;99.90
40454;DHT22;26160;51.858;4.398;2022-12-29T10:38:03;10.40;99.90
40454;DHT22;26160;51.858;4.398;2022-12-29T10:41:21;10.30;99.90
40454;DHT22;26160;51.858;4.398;2022-12-29T10:43:43;10.30;99.90
40454;DHT22;26160;51.858;4.398;2022-12-29T10:46:14;10.30;99.90
40454;DHT22;26160;51.858;4.398;2022-12-29T10:48:41;10.30;99.90
40454;DHT22;26160;51.858;4.398;2022-12-29T10:56:27;10.60;99.90
40454;DHT22;26160;51.858;4.398;2022-12-29T10:58:56;10.70;99.90
40454;DHT22;26160;51.858;4.398;2022-12-29T11:01:29;10.70;99.90
40454;DHT22;26160;51.858;4.398;2022-12-29T11:07:01;10.80;99.90
40454;DHT22;26160;51.858;4.398;2022-12-29T11:09:31;10.80;99.90
40454;DHT22;26160;51.858;4.398;2022-12-29T11:11:58;10.90;99.90
40454;DHT22;26160;51.858;4.398;2022-12-29T11:14:29;11.00;99.90
40454;DHT22;26160;51.858;4.398;2022-12-29T11:16:58;11.10;99.90
40454;DHT22;26160;51.858;4.398;2022-12-29T11:19:27;11.20;99.90
40454;DHT22;26160;51.858;4.398;2022-12-29T11:21:54;11.10;99.90
40454;DHT22;26160;51.858;4.398;2022-12-29T11:24:28;11.10;99.90
40454;DHT22;26160;51.858;4.398;2022-12-29T11:27:08;11.10;99.90
40454;DHT22;26160;51.858;4.398;2022-12-29T11:29:39;11.20;99.90
40454;DHT22;26160;51.858;4.398;2022-12-29T11:32:28;11.20;99.90
40454;DHT22;26160;51.858;4.398;2022-12-29T11:34:58;11.30;99.90
40454;DHT22;26160;51.858;4.398;2022-12-29T11:37:38;11.40;99.90
40454;DHT22;26160;51.858;4.398;2022-12-29T11:40:19;11.40;99.90
40454;DHT22;26160;51.858;4.398;2022-12-29T11:42:51;11.30;99.90
40454;DHT22;26160;51.858;4.398;2022-12-29T11:45:24;11.30;99.90
40454;DHT22;26160;51.858;4.398;2022-12-29T11:47:57;11.40;99.90
40454;DHT22;26160;51.858;4.398;2022-12-29T11:50:29;11.30;99.90
40454;DHT22;26160;51.858;4.398;2022-12-29T11:53:07;11.20;99.90
40454;DHT22;26160;51.858;4.398;2022-12-29T11:55:39;11.20;99.90
40454;DHT22;26160;51.858;4.398;2022-12-29T11:58:06;11.30;99.90
40454;DHT22;26160;51.858;4.398;2022-12-29T12:00:34;11.30;99.90
40454;DHT22;26160;51.858;4.398;2022-12-29T12:03:15;11.30;99.90
40454;DHT22;26160;51.858;4.398;2022-12-29T12:08:34;11.20;99.90
40454;DHT22;26160;51.858;4.398;2022-12-29T12:11:12;11.20;99.90
40454;DHT22;26160;51.858;4.398;2022-12-29T12:16:26;11.20;99.90
40454;DHT22;26160;51.858;4.398;2022-12-29T12:18:58;11.20;99.90
40454;DHT22;26160;51.858;4.398;2022-12-29T12:21:43;11.20;99.90
40454;DHT22;26160;51.858;4.398;2022-12-29T12:27:11;11.30;99.90
40454;DHT22;26160;51.858;4.398;2022-12-29T12:34:49;11.40;99.90
40454;DHT22;26160;51.858;4.398;2022-12-29T12:37:50;11.40;99.90
40454;DHT22;26160;51.858;4.398;2022-12-29T12:46:19;11.40;99.90
40454;DHT22;26160;51.858;4.398;2022-12-29T12:58:19;11.40;99.90
40454;DHT22;26160;51.858;4.398;2022-12-29T13:18:07;10.70;99.90
40454;DHT22;26160;51.858;4.398;2022-12-29T13:20:59;10.30;99.90
40454;DHT22;26160;51.858;4.398;2022-12-29T13:26:19;10.00;99.90
40454;DHT22;26160;51.858;4.398;2022-12-29T13:29:18;10.00;99.90
40454;DHT22;26160;51.858;4.398;2022-12-29T13:31:56;9.90;99.90
40454;DHT22;26160;51.858;4.398;2022-12-29T13:37:18;9.80;99.90
40454;DHT22;26160;51.858;4.398;2022-12-29T13:39:50;9.80;99.90
40454;DHT22;26160;51.858;4.398;2022-12-29T13:42:19;9.80;99.90
40454;DHT22;26160;51.858;4.398;2022-12-29T13:44:51;10.00;99.90
40454;DHT22;26160;51.858;4.398;2022-12-29T13:47:40;10.00;99.90
40454;DHT22;26160;51.858;4.398;2022-12-29T13:50:16;10.10;99.90
40454;DHT22;26160;51.858;4.398;2022-12-29T13:55:35;10.10;99.90
40454;DHT22;26160;51.858;4.398;2022-12-29T14:03:55;10.20;99.90
40454;DHT22;26160;51.858;4.398;2022-12-29T14:06:22;10.30;99.90
40454;DHT22;26160;51.858;4.398;2022-12-29T14:08:52;10.30;99.90
40454;DHT22;26160;51.858;4.398;2022-12-29T14:11:22;10.30;99.90
40454;DHT22;26160;51.858;4.398;2022-12-29T14:13:50;10.30;99.90
40454;DHT22;26160;51.858;4.398;2022-12-29T14:16:31;10.30;99.90
40454;DHT22;26160;51.858;4.398;2022-12-29T14:19:19;10.30;99.90
40454;DHT22;26160;51.858;4.398;2022-12-29T14:21:58;10.30;99.90
40454;DHT22;26160;51.858;4.398;2022-12-29T14:24:40;10.30;99.90
40454;DHT22;26160;51.858;4.398;2022-12-29T14:34:54;10.30;99.90
40454;DHT22;26160;51.858;4.398;2022-12-29T14:40:25;10.30;99.90
40454;DHT22;26160;51.858;4.398;2022-12-29T14:42:54;10.30;99.90
40454;DHT22;26160;51.858;4.398;2022-12-29T14:45:26;10.30;99.90
40454;DHT22;26160;51.858;4.398;2022-12-29T14:47:53;10.20;99.90
40454;DHT22;26160;51.858;4.398;2022-12-29T14:53:04;10.20;99.90
40454;DHT22;26160;51.858;4.398;2022-12-29T14:55:54;10.20;99.90
40454;DHT22;26160;51.858;4.398;2022-12-29T14:58:26;10.20;99.90
40454;DHT22;26160;51.858;4.398;2022-12-29T15:00:53;10.20;99.90
40454;DHT22;26160;51.858;4.398;2022-12-29T15:03:29;10.20;99.90
40454;DHT22;26160;51.858;4.398;2022-12-29T15:06:08;10.20;99.90
40454;DHT22;26160;51.858;4.398;2022-12-29T15:11:14;10.20;99.90
40454;DHT22;26160;51.858;4.398;2022-12-29T15:13:43;10.20;99.90
40454;DHT22;26160;51.858;4.398;2022-12-29T15:16:32;10.20;99.90
40454;DHT22;26160;51.858;4.398;2022-12-29T15:18:59;10.10;99.90
40454;DHT22;26160;51.858;4.398;2022-12-29T15:21:35;10.10;99.90
40454;DHT22;26160;51.858;4.398;2022-12-29T15:24:03;10.10;99.90
40454;DHT22;26160;51.858;4.398;2022-12-29T15:26:41;10.00;99.90
40454;DHT22;26160;51.858;4.398;2022-12-29T15:31:57;9.80;99.90
40454;DHT22;26160;51.858;4.398;2022-12-29T15:34:24;9.80;99.90
40454;DHT22;26160;51.858;4.398;2022-12-29T15:36:51;9.70;99.90
40454;DHT22;26160;51.858;4.398;2022-12-29T15:39:20;9.70;99.90
40454;DHT22;26160;51.858;4.398;2022-12-29T15:41:47;9.70;99.90
40454;DHT22;26160;51.858;4.398;2022-12-29T15:46:56;9.60;99.90
40454;DHT22;26160;51.858;4.398;2022-12-29T15:49:23;9.50;99.90
40454;DHT22;26160;51.858;4.398;2022-12-29T15:51:50;9.50;99.90
40454;DHT22;26160;51.858;4.398;2022-12-29T15:54:21;9.40;99.90
40454;DHT22;26160;51.858;4.398;2022-12-29T15:56:49;9.40;99.90
40454;DHT22;26160;51.858;4.398;2022-12-29T15:59:24;9.30;99.90
40454;DHT22;26160;51.858;4.398;2022-12-29T16:01:50;9.30;99.90
40454;DHT22;26160;51.858;4.398;2022-12-29T16:04:17;9.20;99.90
40454;DHT22;26160;51.858;4.398;2022-12-29T16:06:54;9.30;99.90
40454;DHT22;26160;51.858;4.398;2022-12-29T16:09:35;9.20;99.90
40454;DHT22;26160;51.858;4.398;2022-12-29T16:12:20;9.20;99.90
40454;DHT22;26160;51.858;4.398;2022-12-29T16:14:50;9.10;99.90
40454;DHT22;26160;51.858;4.398;2022-12-29T16:17:21;9.10;99.90
40454;DHT22;26160;51.858;4.398;2022-12-29T16:19:55;9.10;99.90
40454;DHT22;26160;51.858;4.398;2022-12-29T16:22:38;9.10;99.90
40454;DHT22;26160;51.858;4.398;2022-12-29T16:25:24;9.10;99.90
40454;DHT22;26160;51.858;4.398;2022-12-29T16:27:51;9.10;99.90
40454;DHT22;26160;51.858;4.398;2022-12-29T16:30:22;9.10;99.90
40454;DHT22;26160;51.858;4.398;2022-12-29T16:32:54;9.10;99.90
40454;DHT22;26160;51.858;4.398;2022-12-29T16:35:34;9.10;99.90
40454;DHT22;26160;51.858;4.398;2022-12-29T16:38:19;9.10;99.90
40454;DHT22;26160;51.858;4.398;2022-12-29T16:40:57;9.00;99.90
40454;DHT22;26160;51.858;4.398;2022-12-29T16:51:32;8.90;99.90
40454;DHT22;26160;51.858;4.398;2022-12-29T16:53:59;8.90;99.90
40454;DHT22;26160;51.858;4.398;2022-12-29T16:56:28;8.80;99.90
40454;DHT22;26160;51.858;4.398;2022-12-29T16:59:03;8.80;99.90
40454;DHT22;26160;51.858;4.398;2022-12-29T17:01:30;8.70;99.90
40454;DHT22;26160;51.858;4.398;2022-12-29T17:04:04;8.70;99.90
40454;DHT22;26160;51.858;4.398;2022-12-29T17:06:31;8.80;99.90
40454;DHT22;26160;51.858;4.398;2022-12-29T17:08:58;8.70;99.90
40454;DHT22;26160;51.858;4.398;2022-12-29T17:17:09;8.70;99.90
40454;DHT22;26160;51.858;4.398;2022-12-29T17:19:37;8.70;99.90
40454;DHT22;26160;51.858;4.398;2022-12-29T17:22:17;8.60;99.90
40454;DHT22;26160;51.858;4.398;2022-12-29T17:24:44;8.60;99.90
40454;DHT22;26160;51.858;4.398;2022-12-29T17:27:21;8.50;99.90
40454;DHT22;26160;51.858;4.398;2022-12-29T17:29:48;8.50;99.90
40454;DHT22;26160;51.858;4.398;2022-12-29T17:32:15;8.60;99.90
40454;DHT22;26160;51.858;4.398;2022-12-29T17:34:41;8.60;99.90
40454;DHT22;26160;51.858;4.398;2022-12-29T17:39:43;8.50;99.90
40454;DHT22;26160;51.858;4.398;2022-12-29T17:42:10;8.50;99.90
40454;DHT22;26160;51.858;4.398;2022-12-29T17:44:36;8.40;99.90
40454;DHT22;26160;51.858;4.398;2022-12-29T17:47:02;8.40;99.90
40454;DHT22;26160;51.858;4.398;2022-12-29T17:49:28;8.40;99.90
40454;DHT22;26160;51.858;4.398;2022-12-29T17:51:56;8.40;99.90
40454;DHT22;26160;51.858;4.398;2022-12-29T17:54:24;8.30;99.90
40454;DHT22;26160;51.858;4.398;2022-12-29T17:56:50;8.30;99.90
40454;DHT22;26160;51.858;4.398;2022-12-29T17:59:17;8.30;99.90
40454;DHT22;26160;51.858;4.398;2022-12-29T18:01:45;8.30;99.90
40454;DHT22;26160;51.858;4.398;2022-12-29T18:04:20;8.30;99.90
40454;DHT22;26160;51.858;4.398;2022-12-29T18:06:46;8.30;99.90
40454;DHT22;26160;51.858;4.398;2022-12-29T18:09:13;8.30;99.90
40454;DHT22;26160;51.858;4.398;2022-12-29T18:11:44;8.40;99.90
40454;DHT22;26160;51.858;4.398;2022-12-29T18:14:14;8.40;99.90
40454;DHT22;26160;51.858;4.398;2022-12-29T18:16:41;8.30;99.90
40454;DHT22;26160;51.858;4.398;2022-12-29T18:19:07;8.40;99.90
40454;DHT22;26160;51.858;4.398;2022-12-29T18:21:35;8.50;99.90
40454;DHT22;26160;51.858;4.398;2022-12-29T18:24:01;8.50;99.90